• °C
  • Pobieranie danych...
wx


PRINT OUT SECTION, show »

METAR EPBY 190430Z 25003KT 9999 FEW033 06/05 Q1015=

METAR EPGD 190430Z 01010KT 9999 FEW030 BKN041 11/04 Q1016 =

METAR EPKK 190430Z 29008KT 9999 FEW008 BKN012 09/07 Q1013 =

METAR EPKT 190430Z 32006KT 9999 OVC006 07/06 Q1014 =

METAR EPLB 190430Z 30011KT 7000 -RA SCT006 BKN011 07/07 Q1009 =

METAR EPLL 190430Z 30006KT 270V330 9999 BKN045 07/07 Q1014 =

METAR EPMO 190430Z 31009KT 280V340 9999 BKN041 08/07 Q1012 =

METAR EPPO 190430Z 33005KT 9999 BKN048 09/07 Q1016 =

METAR EPRA 190430Z NIL=

METAR EPRZ 190430Z 28009KT 9999 -RA FEW006 BKN013 07/06 Q1011 =

METAR EPSC 190430Z 36002KT 9999 OVC043 11/08 Q1017 =

METAR EPSY 190430Z 36011KT 9999 SCT040 07/05 Q1012=

METAR EPWA 190430Z 32009KT 9999 FEW011 BKN038 08/06 Q1012 NOSIG=

METAR EPWR 190430Z 33005KT 9999 FEW012 BKN035 09/08 Q1016 =

METAR EPZG 190430Z 34003KT 280V010 9999 OVC046 10/08 Q1017 =



IMGW-PIB Sites